Mercer County Airport
KBLF : rendu visible

Aérodrome :











RETROUVEZ-NOUS SUR...

 
LOGIN :

S'inscrire | Disclaimer

   EN    FR    IT 

 









Légende :    VFR   VFR Marginal   IFR   IFR Intensif   IFR Très Intensif
Visi : 
Plafond : 
>= 8 km
>= 3000ft
5 à 8 km
1000 à 3000 ft
1500m à 5 km
500 à 1000 ft
800 à 1500m
200 à 500 ft
< 800m
< 200 ft
Symboles :   Orages  Brouillard  Fortes neiges  Fortes précipitations  Vent > 20 kt






- Altitude de l'aérodrome : 2857 ft
- Code IATA : BLF


KBLF - Mercer County

DERNIER METAR :
  • 172352Z AUTO VRB05KT 10SM CLR 00/M12 A3050 RMK AO2 SLP357 T00001117 10017 21017 58003 TSNO

METARs EXPIRÉS :
  • 172252Z AUTO 00000KT 10SM CLR 00/M12 A3052 RMK AO2 SLP362 T00001122 TSNO
  • 172152Z AUTO VRB06KT 10SM CLR 01/M14 A3052 RMK AO2 SLP361 T00061139 TSNO

TAF KBLF
Valide du 18 à 00h jusqu'au 19 à 00h UTC


172340Z 1800/1824 12003KT P6SM BKN100 OVC250
FM180400 15008KT P6SM OVC090
FM181100 15010G21KT P6SM OVC070 WS020/19035KT
FM181400 15012G21KT P6SM -FZRA OVC040 WS020/21040KT
FM181600 16012G22KT 6SM -RA OVC030
FM182100 23016G26KT 4SM -RA BR SCT015 OVC022



MET'MAP, la Météo Aéronautique d'un coup d'oeil ! - Copyright ORBIFLY Décembre 2007 - Disclaimer

ORBIFLY MET'MAP TEAM :

Programmation & Développement : Alexandra Zaïnal
Sur une idée originale de : Baudouin d'Aumeries
Assistance à la programmation : Marc-Olivier Méhu
Soutien technique & logistique : Manuel Goepfert

Contact : metmap@orbifly.com




SOURCES & CREDITS :

   NOAA       Earth
Advisory